createdAt,value
2022-08-09T00:00:28.046Z,101795.63
2022-08-09T00:02:54.383Z,101803.59
2022-08-09T00:06:17.977Z,101803.59
2022-08-09T00:08:11.471Z,101791.69
2022-08-09T00:10:55.040Z,101800.00
2022-08-09T00:13:24.386Z,101796.28
2022-08-09T00:15:59.092Z,101797.97
2022-08-09T00:18:28.906Z,101797.28
2022-08-09T00:20:55.139Z,101795.63
2022-08-09T00:23:55.355Z,101799.00
2022-08-09T00:26:08.833Z,101798.16
2022-08-09T00:28:38.025Z,101801.72
2022-08-09T00:31:30.369Z,101798.34
2022-08-09T00:33:52.462Z,101793.91
2022-08-09T00:36:19.555Z,101792.06
2022-08-09T00:38:45.764Z,101799.00
2022-08-09T00:44:13.033Z,101796.94
2022-08-09T00:44:19.479Z,101796.13
2022-08-09T00:46:56.942Z,101796.94
2022-08-09T00:49:28.208Z,101789.66
2022-08-09T00:51:57.187Z,101784.91
2022-08-09T00:54:31.524Z,101794.06
2022-08-09T00:57:02.055Z,101794.06
2022-08-09T00:59:41.471Z,101794.91
2022-08-09T01:02:24.424Z,101782.34
2022-08-09T01:05:13.750Z,101785.06
2022-08-09T01:08:00.690Z,101776.75
2022-08-09T01:10:51.153Z,101785.56
2022-08-09T01:13:41.912Z,101783.88
2022-08-09T01:16:26.942Z,101775.91
2022-08-09T01:19:04.889Z,101781.19
2022-08-09T01:21:51.249Z,101774.91
2022-08-09T01:24:40.157Z,101775.75
2022-08-09T01:27:12.702Z,101773.88
2022-08-09T01:29:56.741Z,101783.06
2022-08-09T01:32:38.649Z,101777.81
2022-08-09T01:35:38.274Z,101781.53
2022-08-09T01:38:15.438Z,101780.69
2022-08-09T01:40:52.918Z,101777.97
2022-08-09T01:43:47.943Z,101788.81
2022-08-09T01:46:24.811Z,101784.78
2022-08-09T01:48:54.364Z,101779.34
2022-08-09T01:51:22.579Z,101784.78
2022-08-09T01:53:50.128Z,101778.50
2022-08-09T01:56:21.333Z,101790.19
2022-08-09T01:58:50.494Z,101794.59
2022-08-09T02:01:19.007Z,101798.16
2022-08-09T02:03:49.407Z,101799.34
2022-08-09T02:06:39.383Z,101801.22
2022-08-09T02:09:14.255Z,101797.50
2022-08-09T02:11:43.850Z,101794.47
2022-08-09T02:14:15.034Z,101796.34
2022-08-09T02:17:15.006Z,101794.47
2022-08-09T02:19:43.428Z,101788.38
2022-08-09T02:22:16.512Z,101787.53
2022-08-09T02:24:51.800Z,101792.28
2022-08-09T02:27:20.230Z,101789.91
2022-08-09T02:30:08.680Z,101792.81
2022-08-09T02:32:39.304Z,101794.34
2022-08-09T02:35:17.197Z,101798.06
2022-08-09T02:37:46.792Z,101797.38
2022-08-09T02:40:18.557Z,101797.72
2022-08-09T02:42:55.078Z,101791.47
2022-08-09T02:45:35.559Z,101790.63
2022-08-09T02:48:19.400Z,101789.06
2022-08-09T02:50:58.948Z,101790.94
2022-08-09T02:53:39.711Z,101795.69
2022-08-09T02:56:11.206Z,101794.19
2022-08-09T02:58:39.257Z,101790.97
2022-08-09T03:01:10.649Z,101796.41
2022-08-09T03:04:17.940Z,101796.94
2022-08-09T03:06:27.493Z,101801.31
2022-08-09T03:08:54.669Z,101802.34
2022-08-09T03:12:06.362Z,101794.91
2022-08-09T03:14:10.062Z,101801.34
2022-08-09T03:16:41.679Z,101801.69
2022-08-09T03:19:14.322Z,101799.84
2022-08-09T03:21:58.085Z,101802.06
2022-08-09T03:24:42.136Z,101802.91
2022-08-09T03:27:10.860Z,101796.97
2022-08-09T03:29:57.238Z,101792.75
2022-08-09T03:32:26.125Z,101793.75
2022-08-09T03:34:54.123Z,101793.41
2022-08-09T03:37:54.745Z,101798.69
2022-08-09T03:40:09.152Z,101795.97
2022-08-09T03:42:39.774Z,101803.22
2022-08-09T03:45:09.894Z,101807.13
2022-08-09T03:47:36.730Z,101807.97
2022-08-09T03:50:09.243Z,101809.84
2022-08-09T03:52:40.580Z,101814.44
2022-08-09T03:55:09.904Z,101811.88
2022-08-09T03:57:44.737Z,101805.63
2022-08-09T04:00:25.916Z,101809.84
2022-08-09T04:02:54.052Z,101811.34
2022-08-09T04:05:27.945Z,101816.28
2022-08-09T04:07:57.256Z,101818.81
2022-08-09T04:10:29.027Z,101821.69
2022-08-09T04:12:56.155Z,101821.53
2022-08-09T04:15:42.562Z,101826.59
2022-08-09T04:18:17.962Z,101833.34
2022-08-09T04:20:44.564Z,101833.19
2022-08-09T04:23:16.702Z,101833.34
2022-08-09T04:25:43.140Z,101837.59
2022-08-09T04:28:09.267Z,101840.09
2022-08-09T04:30:38.567Z,101840.78
2022-08-09T04:33:10.981Z,101839.94
2022-08-09T04:35:40.080Z,101838.06
2022-08-09T04:38:09.563Z,101844.00
2022-08-09T04:40:56.335Z,101847.72
2022-08-09T04:43:23.339Z,101841.78
2022-08-09T04:45:53.592Z,101848.03
2022-08-09T04:48:20.239Z,101849.56
2022-08-09T04:50:46.549Z,101853.50
2022-08-09T04:53:16.214Z,101854.00
2022-08-09T04:55:59.069Z,101858.53
2022-08-09T04:58:31.563Z,101856.38
2022-08-09T05:00:58.255Z,101859.72
2022-08-09T05:03:40.525Z,101866.19
2022-08-09T05:06:11.507Z,101864.81
2022-08-09T05:08:37.633Z,101872.22
2022-08-09T05:11:07.627Z,101868.16
2022-08-09T11:19:11.872Z,101908.22
2022-08-09T11:22:05.069Z,101898.41
2022-08-09T11:24:57.690Z,101904.84
2022-08-09T11:28:03.890Z,101897.50
2022-08-09T11:30:32.818Z,101900.03
2022-08-09T11:33:18.472Z,101899.34
2022-08-09T11:35:58.659Z,101904.53
2022-08-09T11:38:34.788Z,101900.63
2022-08-09T11:41:10.278Z,101901.06
2022-08-09T11:43:47.259Z,101903.97
2022-08-09T11:46:26.692Z,101901.78
2022-08-09T11:48:59.650Z,101896.91
2022-08-09T11:52:54.089Z,101900.38
2022-08-09T11:54:28.152Z,101896.06
2022-08-09T11:58:00.061Z,101898.84
2022-08-09T12:00:27.234Z,101900.53
2022-08-09T12:02:54.463Z,101903.09
2022-08-09T12:05:23.108Z,101898.84
2022-08-09T12:07:49.785Z,101890.63
2022-08-09T12:10:38.486Z,101891.38
2022-08-09T12:14:06.952Z,101885.56
2022-08-09T12:15:52.298Z,101881.16
2022-08-09T12:18:30.258Z,101875.25
2022-08-09T12:21:03.215Z,101885.31
2022-08-09T12:23:56.618Z,101883.84
2022-08-09T12:26:19.648Z,101882.16
2022-08-09T12:29:15.498Z,101887.31
2022-08-09T12:31:59.013Z,101877.72
2022-08-09T12:34:36.708Z,101880.00
2022-08-09T12:37:21.670Z,101877.66
2022-08-09T12:40:26.879Z,101876.78
2022-08-09T12:42:54.181Z,101879.78
2022-08-09T12:45:32.344Z,101879.31
2022-08-09T12:48:01.292Z,101878.63
2022-08-09T12:50:28.614Z,101876.69
2022-08-09T12:53:07.959Z,101880.63
2022-08-09T12:56:16.450Z,101872.75
2022-08-09T12:58:24.132Z,101868.44
2022-08-09T13:00:53.349Z,101863.34
2022-08-09T13:03:53.489Z,101851.47
2022-08-09T13:06:38.834Z,101859.25
2022-08-09T13:09:26.249Z,101850.78
2022-08-09T13:12:03.174Z,101846.03
2022-08-09T13:14:40.893Z,101847.06
2022-08-09T13:17:16.575Z,101847.56
2022-08-09T13:20:16.047Z,101841.09
2022-08-09T13:23:05.780Z,101849.31
2022-08-09T13:25:53.022Z,101849.84
2022-08-09T13:28:24.501Z,101843.69
2022-08-09T13:32:20.266Z,101847.50
2022-08-09T13:33:56.862Z,101858.38
2022-08-09T13:36:38.129Z,101859.19
2022-08-09T13:41:50.735Z,101853.97
2022-08-09T13:42:01.910Z,101855.53
2022-08-09T13:44:29.334Z,101852.72
2022-08-09T13:47:27.371Z,101847.44
2022-08-09T13:49:56.255Z,101854.03
2022-08-09T13:52:24.672Z,101852.38
2022-08-09T13:54:59.750Z,101847.97
2022-08-09T13:57:35.622Z,101848.44
2022-08-09T14:00:02.689Z,101850.34
2022-08-09T14:02:42.480Z,101850.59
2022-08-09T14:05:57.411Z,101850.22
2022-08-09T14:08:10.251Z,101845.47
2022-08-09T14:10:46.335Z,101845.69
2022-08-09T14:13:28.094Z,101841.38
2022-08-09T14:16:10.067Z,101822.81
2022-08-09T14:18:36.919Z,101831.16
2022-08-09T14:21:03.037Z,101825.97
2022-08-09T14:23:40.165Z,101825.72
2022-08-09T14:26:12.976Z,101830.13
2022-08-09T14:28:39.778Z,101837.06
2022-08-09T14:31:07.007Z,101835.59
2022-08-09T14:33:38.289Z,101831.69
2022-08-09T14:36:12.134Z,101837.31
2022-08-09T14:38:46.307Z,101839.72
2022-08-09T14:41:26.752Z,101827.22
2022-08-09T14:44:01.395Z,101832.97
2022-08-09T14:46:57.104Z,101836.78
2022-08-09T14:49:16.264Z,101835.63
2022-08-09T14:51:42.804Z,101830.88
2022-08-09T14:54:09.549Z,101839.22
2022-08-09T14:56:36.248Z,101832.75
2022-08-09T14:59:22.315Z,101828.31
2022-08-09T15:01:49.870Z,101831.75
2022-08-09T15:04:16.001Z,101839.44
2022-08-09T15:06:42.121Z,101833.59
2022-08-09T15:09:15.888Z,101831.06
2022-08-09T15:12:02.000Z,101831.03
2022-08-09T15:14:33.722Z,101829.19
2022-08-09T15:17:00.302Z,101840.03
2022-08-09T15:19:30.858Z,101835.88
2022-08-09T15:22:02.858Z,101831.59
2022-08-09T15:24:29.210Z,101824.38
2022-08-09T15:26:55.351Z,101827.22
2022-08-09T15:30:56.677Z,101831.59
2022-08-09T15:32:28.971Z,101832.09
2022-08-09T15:34:54.314Z,101831.34
2022-08-09T15:37:37.058Z,101829.31
2022-08-09T15:40:06.878Z,101831.41
2022-08-09T15:42:38.939Z,101828.13
2022-08-09T15:45:07.239Z,101826.88
2022-08-09T15:47:51.828Z,101825.69
2022-08-09T15:50:23.435Z,101824.44
2022-08-09T15:53:06.362Z,101823.13
2022-08-09T15:56:04.209Z,101825.06
2022-08-09T15:58:26.430Z,101819.13
2022-08-09T16:00:53.461Z,101820.63
2022-08-09T16:03:29.735Z,101818.13
2022-08-09T16:06:06.407Z,101821.53
2022-08-09T16:08:32.724Z,101818.28
2022-08-09T16:11:01.727Z,101812.38
2022-08-09T16:14:02.714Z,101809.69
2022-08-09T16:16:18.388Z,101814.63
2022-08-09T16:18:48.022Z,101816.66
2022-08-09T16:21:17.477Z,101818.97
2022-08-09T16:23:55.974Z,101814.56
2022-08-09T16:26:35.101Z,101821.13
2022-08-09T16:29:10.662Z,101814.94
2022-08-09T16:32:19.085Z,101816.09
2022-08-09T16:34:24.937Z,101818.22
2022-08-09T16:36:51.086Z,101821.06
2022-08-09T16:39:17.225Z,101810.88
2022-08-09T16:42:03.473Z,101807.84
2022-08-09T16:44:31.684Z,101813.13
2022-08-09T16:47:03.875Z,101808.44
2022-08-09T16:50:31.064Z,101812.09
2022-08-09T16:52:30.398Z,101808.41
2022-08-09T16:54:56.531Z,101808.75
2022-08-09T16:57:23.100Z,101819.13
2022-08-09T16:59:50.240Z,101817.75
2022-08-09T17:02:23.851Z,101828.81
2022-08-09T17:04:51.733Z,101824.50
2022-08-09T17:08:44.322Z,101819.94
2022-08-09T17:10:13.558Z,101825.72
2022-08-09T17:12:42.285Z,101832.66
2022-08-09T17:15:30.526Z,101832.59
2022-08-09T17:18:00.677Z,101827.16
2022-08-09T17:20:29.706Z,101829.69
2022-08-09T17:23:03.483Z,101836.75
2022-08-09T17:25:31.217Z,101835.66
2022-08-09T17:28:05.629Z,101853.25
2022-08-09T17:30:32.496Z,101838.53
2022-08-09T17:33:05.710Z,101840.59
2022-08-09T17:35:48.329Z,101850.22
2022-08-09T17:38:32.293Z,101854.19
2022-08-09T17:41:02.140Z,101858.34
2022-08-09T17:43:33.954Z,101861.19
2022-08-09T17:46:06.246Z,101863.19
2022-08-09T17:48:39.743Z,101864.47
2022-08-09T17:51:17.153Z,101861.13
2022-08-09T17:53:51.546Z,101866.19
2022-08-09T17:56:18.891Z,101857.16
2022-08-09T17:58:46.448Z,101868.75
2022-08-09T18:01:15.419Z,101872.09
2022-08-09T18:03:49.341Z,101873.16
2022-08-09T18:06:28.801Z,101875.69
2022-08-09T18:08:59.675Z,101870.81
2022-08-09T18:11:26.332Z,101872.50
2022-08-09T18:13:58.199Z,101881.72
2022-08-09T18:16:30.532Z,101878.75
2022-08-09T18:19:04.197Z,101879.34
2022-08-09T18:21:50.343Z,101879.75
2022-08-09T18:24:18.882Z,101882.44
2022-08-09T18:26:46.609Z,101882.63
2022-08-09T18:30:42.912Z,101885.34
2022-08-09T18:31:59.552Z,101890.06
2022-08-09T18:34:29.006Z,101895.91
2022-08-09T18:36:55.528Z,101891.25
2022-08-09T18:39:25.762Z,101892.00
2022-08-09T18:41:59.155Z,101890.88
2022-08-09T18:44:25.758Z,101898.34
2022-08-09T18:47:07.839Z,101902.47
2022-08-09T18:49:41.538Z,101897.97
2022-08-09T18:52:10.056Z,101897.91
2022-08-09T18:54:37.755Z,101900.78
2022-08-09T18:57:05.984Z,101895.94
2022-08-09T18:59:48.426Z,101894.38
2022-08-09T19:02:15.385Z,101905.97
2022-08-09T19:04:41.565Z,101912.38
2022-08-09T19:07:16.458Z,101908.31
2022-08-09T19:10:15.599Z,101909.66
2022-08-09T19:12:30.394Z,101920.47
2022-08-09T19:14:57.344Z,101923.94
2022-08-09T19:17:23.465Z,101922.63
2022-08-09T19:19:58.621Z,101925.06
2022-08-09T19:22:27.166Z,101927.53
2022-08-09T19:25:09.211Z,101929.50
2022-08-09T19:27:39.936Z,101930.16
2022-08-09T19:30:22.514Z,101924.66
2022-08-09T19:32:53.667Z,101924.94
2022-08-09T19:35:26.220Z,101931.59
2022-08-09T19:37:56.218Z,101925.03
2022-08-09T19:40:24.431Z,101934.38
2022-08-09T19:43:00.258Z,101939.00
2022-08-09T19:45:27.305Z,101933.47
2022-08-09T19:48:05.707Z,101936.56
2022-08-09T19:50:50.227Z,101937.94
2022-08-09T19:53:20.700Z,101933.91
2022-08-09T19:56:02.367Z,101943.31
2022-08-09T19:58:32.096Z,101942.97
2022-08-09T20:00:58.804Z,101936.03
2022-08-09T20:04:11.625Z,101945.59
2022-08-09T20:06:23.559Z,101946.69
2022-08-09T20:08:57.246Z,101943.50
2022-08-09T20:11:25.906Z,101950.66
2022-08-09T20:13:54.338Z,101944.75
2022-08-09T20:16:33.584Z,101944.75
2022-08-09T20:19:48.704Z,101944.81
2022-08-09T20:21:56.277Z,101950.16
2022-08-09T20:24:29.528Z,101953.94
2022-08-09T20:26:59.856Z,101950.75
2022-08-09T20:29:31.092Z,101953.19
2022-08-09T20:32:31.341Z,101954.06
2022-08-09T20:34:50.732Z,101960.03
2022-08-09T20:37:17.598Z,101961.06
2022-08-09T20:40:16.161Z,101956.81
2022-08-09T20:42:35.279Z,101957.53
2022-08-09T20:45:57.082Z,101960.94
2022-08-09T20:47:50.645Z,101950.97
2022-08-09T20:50:47.746Z,101957.44
2022-08-09T20:53:02.903Z,101948.53
2022-08-09T20:55:29.673Z,101947.19
2022-08-09T20:58:20.298Z,101948.91
2022-08-09T21:01:01.982Z,101955.19
2022-08-09T21:03:28.648Z,101967.09
2022-08-09T21:06:05.782Z,101974.03
2022-08-09T21:08:36.379Z,101964.03
2022-08-09T21:11:03.069Z,101974.56
2022-08-09T21:13:45.755Z,101975.25
2022-08-09T21:16:19.780Z,101978.50
2022-08-09T21:20:04.317Z,101977.50
2022-08-09T21:21:46.310Z,101969.22
2022-08-09T21:24:19.262Z,101975.66
2022-08-09T21:26:51.495Z,101986.31
2022-08-09T21:29:22.792Z,101982.25
2022-08-09T21:31:49.817Z,101985.47
2022-08-09T21:34:28.680Z,101986.31
2022-08-09T21:36:56.515Z,101988.53
2022-08-09T21:39:27.894Z,101984.63
2022-08-09T21:42:04.871Z,101987.16
2022-08-09T21:44:35.316Z,101978.69
2022-08-09T21:47:08.829Z,101981.59
2022-08-09T21:49:40.100Z,101982.09
2022-08-09T21:52:08.027Z,101982.59
2022-08-09T21:54:42.396Z,101973.97
2022-08-09T21:57:25.149Z,101969.38
2022-08-09T21:59:58.329Z,101975.13
2022-08-09T22:02:36.071Z,101975.63
2022-08-09T22:05:16.711Z,101977.97
2022-08-09T22:07:52.235Z,101974.78
2022-08-09T22:10:22.133Z,101968.19
2022-08-09T22:12:50.320Z,101974.41
2022-08-09T22:15:16.980Z,101982.34
2022-08-09T22:17:45.968Z,101979.31
2022-08-09T22:20:21.533Z,101981.34
2022-08-09T22:22:48.727Z,101972.69
2022-08-09T22:26:05.422Z,101974.19
2022-08-09T22:28:01.242Z,101971.81
2022-08-09T22:30:33.669Z,101974.16
2022-08-09T22:32:59.839Z,101972.94
2022-08-09T22:36:02.591Z,101975.97
2022-08-09T22:38:14.796Z,101978.00
2022-08-09T22:40:49.104Z,101977.97
2022-08-09T22:44:00.635Z,101983.03
2022-08-09T22:48:16.315Z,101973.72
2022-08-09T22:48:55.707Z,101968.63
2022-08-09T22:51:28.085Z,101972.97
2022-08-09T22:53:58.416Z,101987.13
2022-08-09T22:56:33.387Z,101974.78
2022-08-09T22:59:01.360Z,101975.97
2022-08-09T23:01:33.133Z,101974.91
2022-08-09T23:04:03.445Z,101970.50
2022-08-09T23:06:52.242Z,101971.53
2022-08-09T23:09:18.357Z,101969.63
2022-08-09T23:11:44.475Z,101978.91
2022-08-09T23:14:17.177Z,101972.28
2022-08-09T23:16:43.821Z,101978.84
2022-08-09T23:19:09.939Z,101980.16
2022-08-09T23:21:36.760Z,101976.75
2022-08-09T23:24:07.159Z,101974.69
2022-08-09T23:26:38.169Z,101969.84
2022-08-09T23:29:05.817Z,101976.41
2022-08-09T23:31:32.518Z,101975.34
2022-08-09T23:33:58.649Z,101972.94
2022-08-09T23:36:24.775Z,101975.06
2022-08-09T23:38:50.906Z,101975.94
2022-08-09T23:41:28.786Z,101970.00
2022-08-09T23:43:55.572Z,101981.59
2022-08-09T23:46:22.277Z,101984.59
2022-08-09T23:48:48.393Z,101977.97
2022-08-09T23:51:14.525Z,101977.44
2022-08-09T23:53:40.702Z,101983.16
2022-08-09T23:56:06.904Z,101977.34
2022-08-09T23:58:33.141Z,101974.66
